sensor_id;sensor_type;location;lat;lon;timestamp;P1;durP1;ratioP1;P2;durP2;ratioP2
9188;SDS011;34313;50.780;6.084;2023-03-05T00:02:12;5.80;;;1.40;;
9188;SDS011;34313;50.780;6.084;2023-03-05T00:04:37;2.93;;;1.70;;
9188;SDS011;34313;50.780;6.084;2023-03-05T00:07:02;5.80;;;2.00;;
9188;SDS011;34313;50.780;6.084;2023-03-05T00:09:29;3.63;;;1.70;;
9188;SDS011;34313;50.780;6.084;2023-03-05T00:11:54;4.37;;;1.40;;
9188;SDS011;34313;50.780;6.084;2023-03-05T00:14:21;5.30;;;1.70;;
9188;SDS011;34313;50.780;6.084;2023-03-05T00:16:46;5.57;;;1.77;;
9188;SDS011;34313;50.780;6.084;2023-03-05T00:19:12;3.87;;;1.60;;
9188;SDS011;34313;50.780;6.084;2023-03-05T00:21:38;4.47;;;1.60;;
9188;SDS011;34313;50.780;6.084;2023-03-05T00:24:06;5.50;;;1.60;;
9188;SDS011;34313;50.780;6.084;2023-03-05T00:26:35;2.97;;;1.37;;
9188;SDS011;34313;50.780;6.084;2023-03-05T00:29:01;3.90;;;1.57;;
9188;SDS011;34313;50.780;6.084;2023-03-05T00:31:28;4.90;;;1.33;;
9188;SDS011;34313;50.780;6.084;2023-03-05T00:33:56;4.20;;;1.23;;
9188;SDS011;34313;50.780;6.084;2023-03-05T00:36:23;7.57;;;2.03;;
9188;SDS011;34313;50.780;6.084;2023-03-05T00:38:49;9.90;;;1.80;;
9188;SDS011;34313;50.780;6.084;2023-03-05T00:41:15;6.03;;;1.50;;
9188;SDS011;34313;50.780;6.084;2023-03-05T00:43:40;3.27;;;1.57;;
9188;SDS011;34313;50.780;6.084;2023-03-05T00:46:05;7.40;;;1.50;;
9188;SDS011;34313;50.780;6.084;2023-03-05T00:48:31;5.87;;;1.30;;
9188;SDS011;34313;50.780;6.084;2023-03-05T00:50:56;4.43;;;1.07;;
9188;SDS011;34313;50.780;6.084;2023-03-05T00:53:22;4.27;;;1.37;;
9188;SDS011;34313;50.780;6.084;2023-03-05T00:55:47;4.83;;;1.67;;
9188;SDS011;34313;50.780;6.084;2023-03-05T00:58:12;4.33;;;1.60;;
9188;SDS011;34313;50.780;6.084;2023-03-05T01:00:38;8.37;;;1.90;;
9188;SDS011;34313;50.780;6.084;2023-03-05T01:03:04;3.50;;;1.57;;
9188;SDS011;34313;50.780;6.084;2023-03-05T01:05:29;4.30;;;1.60;;
9188;SDS011;34313;50.780;6.084;2023-03-05T01:07:55;3.33;;;1.53;;
9188;SDS011;34313;50.780;6.084;2023-03-05T01:10:22;6.90;;;1.93;;
9188;SDS011;34313;50.780;6.084;2023-03-05T01:12:50;4.73;;;1.40;;
9188;SDS011;34313;50.780;6.084;2023-03-05T01:15:16;7.57;;;2.00;;
9188;SDS011;34313;50.780;6.084;2023-03-05T01:17:42;6.23;;;1.40;;
9188;SDS011;34313;50.780;6.084;2023-03-05T01:20:07;5.30;;;1.80;;
9188;SDS011;34313;50.780;6.084;2023-03-05T01:22:33;3.93;;;1.80;;
9188;SDS011;34313;50.780;6.084;2023-03-05T01:24:59;6.93;;;2.10;;
9188;SDS011;34313;50.780;6.084;2023-03-05T01:27:24;12.53;;;2.00;;
9188;SDS011;34313;50.780;6.084;2023-03-05T01:29:50;6.07;;;2.13;;
9188;SDS011;34313;50.780;6.084;2023-03-05T01:32:15;4.47;;;1.70;;
9188;SDS011;34313;50.780;6.084;2023-03-05T01:34:40;10.87;;;2.30;;
9188;SDS011;34313;50.780;6.084;2023-03-05T01:37:06;4.57;;;1.67;;
9188;SDS011;34313;50.780;6.084;2023-03-05T01:39:32;8.90;;;2.00;;
9188;SDS011;34313;50.780;6.084;2023-03-05T01:41:57;5.53;;;1.97;;
9188;SDS011;34313;50.780;6.084;2023-03-05T01:44:24;5.83;;;1.60;;
9188;SDS011;34313;50.780;6.084;2023-03-05T01:46:51;6.03;;;1.67;;
9188;SDS011;34313;50.780;6.084;2023-03-05T01:49:27;7.57;;;1.50;;
9188;SDS011;34313;50.780;6.084;2023-03-05T01:54:24;3.90;;;1.57;;
9188;SDS011;34313;50.780;6.084;2023-03-05T01:56:58;6.00;;;1.77;;
9188;SDS011;34313;50.780;6.084;2023-03-05T01:59:28;6.00;;;1.80;;
9188;SDS011;34313;50.780;6.084;2023-03-05T02:01:55;7.03;;;2.10;;
9188;SDS011;34313;50.780;6.084;2023-03-05T02:04:23;3.93;;;1.93;;
9188;SDS011;34313;50.780;6.084;2023-03-05T02:06:53;8.33;;;2.00;;
9188;SDS011;34313;50.780;6.084;2023-03-05T02:09:19;9.23;;;2.20;;
9188;SDS011;34313;50.780;6.084;2023-03-05T02:11:47;3.73;;;1.93;;
9188;SDS011;34313;50.780;6.084;2023-03-05T02:14:13;8.90;;;2.50;;
9188;SDS011;34313;50.780;6.084;2023-03-05T02:16:38;5.90;;;1.80;;
9188;SDS011;34313;50.780;6.084;2023-03-05T02:19:04;6.77;;;2.50;;
9188;SDS011;34313;50.780;6.084;2023-03-05T02:21:40;7.30;;;2.00;;
9188;SDS011;34313;50.780;6.084;2023-03-05T02:24:10;9.80;;;1.97;;
9188;SDS011;34313;50.780;6.084;2023-03-05T02:26:36;3.13;;;1.70;;
9188;SDS011;34313;50.780;6.084;2023-03-05T02:29:02;7.63;;;2.10;;
9188;SDS011;34313;50.780;6.084;2023-03-05T02:31:31;7.33;;;2.20;;
9188;SDS011;34313;50.780;6.084;2023-03-05T02:33:57;12.33;;;2.50;;
9188;SDS011;34313;50.780;6.084;2023-03-05T02:36:22;7.33;;;2.10;;
9188;SDS011;34313;50.780;6.084;2023-03-05T02:38:49;9.30;;;2.57;;
9188;SDS011;34313;50.780;6.084;2023-03-05T02:41:14;10.27;;;2.30;;
9188;SDS011;34313;50.780;6.084;2023-03-05T02:43:40;7.20;;;2.50;;
9188;SDS011;34313;50.780;6.084;2023-03-05T02:46:06;8.43;;;1.70;;
9188;SDS011;34313;50.780;6.084;2023-03-05T02:48:31;11.00;;;2.10;;
9188;SDS011;34313;50.780;6.084;2023-03-05T02:50:57;5.17;;;2.13;;
9188;SDS011;34313;50.780;6.084;2023-03-05T02:53:22;9.70;;;2.77;;
9188;SDS011;34313;50.780;6.084;2023-03-05T02:55:48;11.33;;;2.90;;
9188;SDS011;34313;50.780;6.084;2023-03-05T02:58:14;6.27;;;2.60;;
9188;SDS011;34313;50.780;6.084;2023-03-05T03:00:40;5.97;;;2.53;;
9188;SDS011;34313;50.780;6.084;2023-03-05T03:03:05;11.93;;;3.47;;
9188;SDS011;34313;50.780;6.084;2023-03-05T03:05:31;10.40;;;3.30;;
9188;SDS011;34313;50.780;6.084;2023-03-05T03:07:56;12.70;;;2.90;;
9188;SDS011;34313;50.780;6.084;2023-03-05T03:10:23;7.70;;;2.57;;
9188;SDS011;34313;50.780;6.084;2023-03-05T03:12:48;6.77;;;2.90;;
9188;SDS011;34313;50.780;6.084;2023-03-05T03:15:14;9.10;;;3.53;;
9188;SDS011;34313;50.780;6.084;2023-03-05T03:17:41;7.70;;;3.00;;
9188;SDS011;34313;50.780;6.084;2023-03-05T03:20:07;6.20;;;2.50;;
9188;SDS011;34313;50.780;6.084;2023-03-05T03:22:35;9.20;;;3.20;;
9188;SDS011;34313;50.780;6.084;2023-03-05T03:25:00;10.50;;;4.00;;
9188;SDS011;34313;50.780;6.084;2023-03-05T03:27:26;9.77;;;3.40;;
9188;SDS011;34313;50.780;6.084;2023-03-05T03:29:51;11.53;;;3.63;;
9188;SDS011;34313;50.780;6.084;2023-03-05T03:32:17;8.00;;;3.73;;
9188;SDS011;34313;50.780;6.084;2023-03-05T03:34:42;14.13;;;3.50;;
9188;SDS011;34313;50.780;6.084;2023-03-05T03:37:08;9.63;;;4.10;;
9188;SDS011;34313;50.780;6.084;2023-03-05T03:39:34;14.37;;;3.80;;
9188;SDS011;34313;50.780;6.084;2023-03-05T03:42:00;12.33;;;4.30;;
9188;SDS011;34313;50.780;6.084;2023-03-05T03:44:25;9.53;;;3.17;;
9188;SDS011;34313;50.780;6.084;2023-03-05T03:46:51;13.10;;;3.93;;
9188;SDS011;34313;50.780;6.084;2023-03-05T03:49:20;9.00;;;3.80;;
9188;SDS011;34313;50.780;6.084;2023-03-05T03:51:48;7.80;;;3.60;;
9188;SDS011;34313;50.780;6.084;2023-03-05T03:54:15;7.93;;;4.23;;
9188;SDS011;34313;50.780;6.084;2023-03-05T03:56:41;10.80;;;3.90;;
9188;SDS011;34313;50.780;6.084;2023-03-05T03:59:07;8.37;;;3.70;;
9188;SDS011;34313;50.780;6.084;2023-03-05T04:01:33;9.57;;;4.70;;
9188;SDS011;34313;50.780;6.084;2023-03-05T04:03:59;11.07;;;4.50;;
9188;SDS011;34313;50.780;6.084;2023-03-05T04:06:24;8.83;;;4.53;;
9188;SDS011;34313;50.780;6.084;2023-03-05T04:08:50;8.53;;;3.80;;
9188;SDS011;34313;50.780;6.084;2023-03-05T04:11:15;12.80;;;4.20;;
9188;SDS011;34313;50.780;6.084;2023-03-05T04:13:43;8.53;;;3.97;;
9188;SDS011;34313;50.780;6.084;2023-03-05T04:16:09;12.67;;;3.53;;
9188;SDS011;34313;50.780;6.084;2023-03-05T04:18:34;14.27;;;4.10;;
9188;SDS011;34313;50.780;6.084;2023-03-05T04:20:59;11.93;;;4.37;;
9188;SDS011;34313;50.780;6.084;2023-03-05T04:23:25;7.43;;;4.17;;
9188;SDS011;34313;50.780;6.084;2023-03-05T04:25:50;13.03;;;4.50;;
9188;SDS011;34313;50.780;6.084;2023-03-05T04:28:15;10.27;;;4.00;;
9188;SDS011;34313;50.780;6.084;2023-03-05T04:30:41;11.17;;;4.50;;
9188;SDS011;34313;50.780;6.084;2023-03-05T04:33:07;8.03;;;3.63;;
9188;SDS011;34313;50.780;6.084;2023-03-05T04:35:32;11.47;;;4.37;;
9188;SDS011;34313;50.780;6.084;2023-03-05T04:37:58;17.67;;;4.50;;
9188;SDS011;34313;50.780;6.084;2023-03-05T04:40:23;13.40;;;4.60;;
9188;SDS011;34313;50.780;6.084;2023-03-05T04:42:48;11.00;;;3.63;;
9188;SDS011;34313;50.780;6.084;2023-03-05T04:45:13;13.37;;;4.20;;
9188;SDS011;34313;50.780;6.084;2023-03-05T04:47:41;8.13;;;3.50;;
9188;SDS011;34313;50.780;6.084;2023-03-05T04:50:07;10.43;;;3.67;;
9188;SDS011;34313;50.780;6.084;2023-03-05T04:52:32;15.33;;;4.70;;
9188;SDS011;34313;50.780;6.084;2023-03-05T04:54:58;13.33;;;4.73;;
9188;SDS011;34313;50.780;6.084;2023-03-05T04:57:23;15.97;;;4.97;;
9188;SDS011;34313;50.780;6.084;2023-03-05T04:59:48;16.03;;;4.77;;
9188;SDS011;34313;50.780;6.084;2023-03-05T05:02:14;20.07;;;4.30;;
9188;SDS011;34313;50.780;6.084;2023-03-05T05:04:39;10.10;;;3.90;;
9188;SDS011;34313;50.780;6.084;2023-03-05T05:07:08;8.70;;;4.37;;
9188;SDS011;34313;50.780;6.084;2023-03-05T05:09:34;7.57;;;3.33;;
9188;SDS011;34313;50.780;6.084;2023-03-05T05:12:00;8.57;;;4.10;;
9188;SDS011;34313;50.780;6.084;2023-03-05T05:14:25;12.93;;;3.67;;
9188;SDS011;34313;50.780;6.084;2023-03-05T05:16:50;8.47;;;3.90;;
9188;SDS011;34313;50.780;6.084;2023-03-05T05:19:16;14.90;;;4.10;;
9188;SDS011;34313;50.780;6.084;2023-03-05T05:21:41;8.60;;;3.80;;
9188;SDS011;34313;50.780;6.084;2023-03-05T05:24:07;9.30;;;4.00;;
9188;SDS011;34313;50.780;6.084;2023-03-05T05:26:32;7.13;;;3.53;;
9188;SDS011;34313;50.780;6.084;2023-03-05T05:28:57;11.53;;;4.20;;
9188;SDS011;34313;50.780;6.084;2023-03-05T05:31:23;8.00;;;4.27;;
9188;SDS011;34313;50.780;6.084;2023-03-05T05:33:48;9.10;;;3.67;;
9188;SDS011;34313;50.780;6.084;2023-03-05T05:36:14;8.30;;;3.40;;
9188;SDS011;34313;50.780;6.084;2023-03-05T05:38:43;11.77;;;3.80;;
9188;SDS011;34313;50.780;6.084;2023-03-05T05:41:12;10.40;;;4.13;;
9188;SDS011;34313;50.780;6.084;2023-03-05T05:43:39;7.13;;;3.53;;
9188;SDS011;34313;50.780;6.084;2023-03-05T05:46:05;6.17;;;3.00;;
9188;SDS011;34313;50.780;6.084;2023-03-05T05:48:33;8.80;;;3.00;;
9188;SDS011;34313;50.780;6.084;2023-03-05T05:51:04;11.77;;;3.33;;
9188;SDS011;34313;50.780;6.084;2023-03-05T05:53:31;7.50;;;3.20;;
9188;SDS011;34313;50.780;6.084;2023-03-05T05:55:56;7.60;;;2.77;;
9188;SDS011;34313;50.780;6.084;2023-03-05T05:58:21;5.67;;;3.43;;
9188;SDS011;34313;50.780;6.084;2023-03-05T06:00:47;7.57;;;2.90;;
9188;SDS011;34313;50.780;6.084;2023-03-05T06:03:12;5.77;;;3.00;;
9188;SDS011;34313;50.780;6.084;2023-03-05T06:05:37;11.20;;;3.00;;
9188;SDS011;34313;50.780;6.084;2023-03-05T06:08:05;17.77;;;3.97;;
9188;SDS011;34313;50.780;6.084;2023-03-05T06:10:31;12.00;;;4.00;;
9188;SDS011;34313;50.780;6.084;2023-03-05T06:12:56;10.03;;;3.80;;
9188;SDS011;34313;50.780;6.084;2023-03-05T06:15:22;7.90;;;4.33;;
9188;SDS011;34313;50.780;6.084;2023-03-05T06:17:47;9.30;;;3.70;;
9188;SDS011;34313;50.780;6.084;2023-03-05T06:20:12;16.87;;;4.20;;
9188;SDS011;34313;50.780;6.084;2023-03-05T06:22:38;12.63;;;4.20;;
9188;SDS011;34313;50.780;6.084;2023-03-05T06:25:05;10.33;;;3.70;;
9188;SDS011;34313;50.780;6.084;2023-03-05T06:27:32;9.60;;;4.53;;
9188;SDS011;34313;50.780;6.084;2023-03-05T06:29:58;12.40;;;4.10;;
9188;SDS011;34313;50.780;6.084;2023-03-05T06:32:24;9.20;;;4.10;;
9188;SDS011;34313;50.780;6.084;2023-03-05T06:34:49;9.20;;;4.47;;
9188;SDS011;34313;50.780;6.084;2023-03-05T06:37:15;13.10;;;3.90;;
9188;SDS011;34313;50.780;6.084;2023-03-05T06:39:40;10.63;;;5.27;;
9188;SDS011;34313;50.780;6.084;2023-03-05T06:42:06;10.43;;;3.70;;
9188;SDS011;34313;50.780;6.084;2023-03-05T06:44:32;13.23;;;4.33;;
9188;SDS011;34313;50.780;6.084;2023-03-05T06:46:57;8.57;;;4.10;;
9188;SDS011;34313;50.780;6.084;2023-03-05T06:49:22;13.60;;;3.57;;
9188;SDS011;34313;50.780;6.084;2023-03-05T06:51:47;11.40;;;4.33;;
9188;SDS011;34313;50.780;6.084;2023-03-05T06:54:14;12.33;;;4.40;;
9188;SDS011;34313;50.780;6.084;2023-03-05T06:56:42;8.73;;;4.03;;
9188;SDS011;34313;50.780;6.084;2023-03-05T06:59:10;9.03;;;4.37;;
9188;SDS011;34313;50.780;6.084;2023-03-05T07:01:37;10.77;;;4.40;;
9188;SDS011;34313;50.780;6.084;2023-03-05T07:04:02;8.77;;;3.90;;
9188;SDS011;34313;50.780;6.084;2023-03-05T07:06:30;6.60;;;4.23;;
9188;SDS011;34313;50.780;6.084;2023-03-05T07:08:57;6.90;;;4.10;;
9188;SDS011;34313;50.780;6.084;2023-03-05T07:11:25;8.03;;;4.10;;
9188;SDS011;34313;50.780;6.084;2023-03-05T07:13:51;5.77;;;3.30;;
9188;SDS011;34313;50.780;6.084;2023-03-05T07:16:21;6.93;;;3.20;;
9188;SDS011;34313;50.780;6.084;2023-03-05T07:18:48;10.23;;;3.73;;
9188;SDS011;34313;50.780;6.084;2023-03-05T07:21:14;7.03;;;3.10;;
9188;SDS011;34313;50.780;6.084;2023-03-05T07:23:43;11.83;;;3.37;;
9188;SDS011;34313;50.780;6.084;2023-03-05T07:26:09;11.03;;;3.40;;
9188;SDS011;34313;50.780;6.084;2023-03-05T07:28:34;11.30;;;3.43;;
9188;SDS011;34313;50.780;6.084;2023-03-05T07:31:00;9.50;;;3.60;;
9188;SDS011;34313;50.780;6.084;2023-03-05T07:33:28;12.07;;;3.90;;
9188;SDS011;34313;50.780;6.084;2023-03-05T07:35:53;14.37;;;3.40;;
9188;SDS011;34313;50.780;6.084;2023-03-05T07:38:19;7.33;;;3.40;;
9188;SDS011;34313;50.780;6.084;2023-03-05T07:40:44;11.53;;;3.33;;
9188;SDS011;34313;50.780;6.084;2023-03-05T07:43:10;6.33;;;2.93;;
9188;SDS011;34313;50.780;6.084;2023-03-05T07:45:39;6.17;;;3.33;;
9188;SDS011;34313;50.780;6.084;2023-03-05T07:48:05;5.47;;;3.40;;
9188;SDS011;34313;50.780;6.084;2023-03-05T07:50:32;5.23;;;2.90;;
9188;SDS011;34313;50.780;6.084;2023-03-05T07:52:57;13.83;;;3.00;;
9188;SDS011;34313;50.780;6.084;2023-03-05T07:55:24;12.33;;;3.20;;
9188;SDS011;34313;50.780;6.084;2023-03-05T07:57:49;7.50;;;3.00;;
9188;SDS011;34313;50.780;6.084;2023-03-05T08:00:15;7.47;;;3.07;;
9188;SDS011;34313;50.780;6.084;2023-03-05T08:02:41;7.30;;;2.90;;
9188;SDS011;34313;50.780;6.084;2023-03-05T08:05:06;9.40;;;3.70;;
9188;SDS011;34313;50.780;6.084;2023-03-05T08:07:32;6.63;;;3.57;;
9188;SDS011;34313;50.780;6.084;2023-03-05T08:09:57;7.60;;;3.70;;
9188;SDS011;34313;50.780;6.084;2023-03-05T08:12:22;6.60;;;3.47;;
9188;SDS011;34313;50.780;6.084;2023-03-05T08:14:48;12.70;;;3.80;;
9188;SDS011;34313;50.780;6.084;2023-03-05T08:17:15;9.73;;;4.33;;
9188;SDS011;34313;50.780;6.084;2023-03-05T08:19:40;10.03;;;4.57;;
9188;SDS011;34313;50.780;6.084;2023-03-05T08:22:06;11.40;;;4.10;;
9188;SDS011;34313;50.780;6.084;2023-03-05T08:24:31;8.33;;;4.13;;
9188;SDS011;34313;50.780;6.084;2023-03-05T08:26:56;9.73;;;4.97;;
9188;SDS011;34313;50.780;6.084;2023-03-05T08:29:22;11.67;;;4.20;;
9188;SDS011;34313;50.780;6.084;2023-03-05T08:31:48;6.57;;;3.60;;
9188;SDS011;34313;50.780;6.084;2023-03-05T08:34:15;8.90;;;4.17;;
9188;SDS011;34313;50.780;6.084;2023-03-05T08:36:40;9.60;;;4.23;;
9188;SDS011;34313;50.780;6.084;2023-03-05T08:39:07;10.43;;;4.40;;
9188;SDS011;34313;50.780;6.084;2023-03-05T08:41:35;11.00;;;4.63;;
9188;SDS011;34313;50.780;6.084;2023-03-05T08:44:00;8.50;;;4.43;;
9188;SDS011;34313;50.780;6.084;2023-03-05T08:46:26;6.90;;;5.03;;
9188;SDS011;34313;50.780;6.084;2023-03-05T08:48:51;11.60;;;5.60;;
9188;SDS011;34313;50.780;6.084;2023-03-05T08:51:18;10.60;;;5.23;;
9188;SDS011;34313;50.780;6.084;2023-03-05T08:53:45;13.40;;;6.57;;
9188;SDS011;34313;50.780;6.084;2023-03-05T08:56:11;10.37;;;6.00;;
9188;SDS011;34313;50.780;6.084;2023-03-05T08:58:37;11.60;;;6.70;;
9188;SDS011;34313;50.780;6.084;2023-03-05T09:01:03;9.47;;;6.63;;
9188;SDS011;34313;50.780;6.084;2023-03-05T09:03:29;15.73;;;6.37;;
9188;SDS011;34313;50.780;6.084;2023-03-05T09:05:59;12.80;;;6.57;;
9188;SDS011;34313;50.780;6.084;2023-03-05T09:08:25;16.00;;;6.80;;
9188;SDS011;34313;50.780;6.084;2023-03-05T09:10:51;11.23;;;5.70;;
9188;SDS011;34313;50.780;6.084;2023-03-05T09:13:16;9.90;;;5.30;;
9188;SDS011;34313;50.780;6.084;2023-03-05T09:15:41;13.10;;;6.30;;
9188;SDS011;34313;50.780;6.084;2023-03-05T09:18:07;15.73;;;4.70;;
9188;SDS011;34313;50.780;6.084;2023-03-05T09:20:33;10.03;;;5.53;;
9188;SDS011;34313;50.780;6.084;2023-03-05T09:22:59;11.73;;;5.23;;
9188;SDS011;34313;50.780;6.084;2023-03-05T09:25:25;15.07;;;5.53;;
9188;SDS011;34313;50.780;6.084;2023-03-05T09:27:50;11.27;;;5.47;;
9188;SDS011;34313;50.780;6.084;2023-03-05T09:30:16;10.83;;;5.43;;
9188;SDS011;34313;50.780;6.084;2023-03-05T09:32:41;14.47;;;5.87;;
9188;SDS011;34313;50.780;6.084;2023-03-05T09:35:07;15.87;;;5.80;;
9188;SDS011;34313;50.780;6.084;2023-03-05T09:37:33;12.40;;;5.20;;
9188;SDS011;34313;50.780;6.084;2023-03-05T09:39:58;15.53;;;6.17;;
9188;SDS011;34313;50.780;6.084;2023-03-05T09:48:08;15.27;;;7.83;;
9188;SDS011;34313;50.780;6.084;2023-03-05T09:50:47;16.90;;;9.17;;
9188;SDS011;34313;50.780;6.084;2023-03-05T09:55:42;15.13;;;10.20;;
9188;SDS011;34313;50.780;6.084;2023-03-05T09:58:17;15.37;;;10.10;;
9188;SDS011;34313;50.780;6.084;2023-03-05T10:01:19;19.27;;;11.70;;
9188;SDS011;34313;50.780;6.084;2023-03-05T10:06:29;18.37;;;10.13;;
9188;SDS011;34313;50.780;6.084;2023-03-05T10:11:39;15.07;;;9.40;;
9188;SDS011;34313;50.780;6.084;2023-03-05T10:14:29;20.83;;;8.60;;
9188;SDS011;34313;50.780;6.084;2023-03-05T10:38:26;12.23;;;5.73;;
9188;SDS011;34313;50.780;6.084;2023-03-05T10:43:59;7.47;;;5.00;;
9188;SDS011;34313;50.780;6.084;2023-03-05T10:46:34;7.43;;;4.53;;
9188;SDS011;34313;50.780;6.084;2023-03-05T10:49:09;5.90;;;4.10;;
9188;SDS011;34313;50.780;6.084;2023-03-05T10:51:38;6.43;;;4.50;;
9188;SDS011;34313;50.780;6.084;2023-03-05T10:56:42;8.30;;;4.20;;
9188;SDS011;34313;50.780;6.084;2023-03-05T10:59:07;10.07;;;4.70;;
9188;SDS011;34313;50.780;6.084;2023-03-05T11:01:33;9.17;;;4.47;;
9188;SDS011;34313;50.780;6.084;2023-03-05T11:03:59;7.27;;;5.20;;
9188;SDS011;34313;50.780;6.084;2023-03-05T11:14:29;6.37;;;3.93;;
9188;SDS011;34313;50.780;6.084;2023-03-05T11:16:59;10.63;;;4.17;;
9188;SDS011;34313;50.780;6.084;2023-03-05T11:19:27;7.40;;;3.90;;
9188;SDS011;34313;50.780;6.084;2023-03-05T11:24:38;4.47;;;3.47;;
9188;SDS011;34313;50.780;6.084;2023-03-05T11:29:55;5.43;;;3.93;;
9188;SDS011;34313;50.780;6.084;2023-03-05T11:32:22;5.23;;;4.23;;
9188;SDS011;34313;50.780;6.084;2023-03-05T11:34:50;4.67;;;2.97;;
9188;SDS011;34313;50.780;6.084;2023-03-05T11:37:22;7.40;;;4.07;;
9188;SDS011;34313;50.780;6.084;2023-03-05T11:42:34;10.03;;;5.60;;
9188;SDS011;34313;50.780;6.084;2023-03-05T11:45:02;9.97;;;4.77;;
9188;SDS011;34313;50.780;6.084;2023-03-05T11:47:38;3.57;;;2.87;;
9188;SDS011;34313;50.780;6.084;2023-03-05T12:00:36;9.57;;;5.70;;
9188;SDS011;34313;50.780;6.084;2023-03-05T12:03:13;8.47;;;4.60;;
9188;SDS011;34313;50.780;6.084;2023-03-05T12:05:43;10.20;;;5.87;;
9188;SDS011;34313;50.780;6.084;2023-03-05T12:08:13;11.90;;;5.30;;
9188;SDS011;34313;50.780;6.084;2023-03-05T12:10:45;17.97;;;7.27;;
9188;SDS011;34313;50.780;6.084;2023-03-05T12:16:07;11.53;;;6.00;;
9188;SDS011;34313;50.780;6.084;2023-03-05T12:21:33;9.93;;;6.00;;
9188;SDS011;34313;50.780;6.084;2023-03-05T12:24:03;15.03;;;6.97;;
9188;SDS011;34313;50.780;6.084;2023-03-05T12:31:54;12.53;;;5.73;;
9188;SDS011;34313;50.780;6.084;2023-03-05T12:35:03;9.37;;;5.10;;
9188;SDS011;34313;50.780;6.084;2023-03-05T12:37:12;6.70;;;4.70;;
9188;SDS011;34313;50.780;6.084;2023-03-05T12:47:42;7.23;;;4.90;;
9188;SDS011;34313;50.780;6.084;2023-03-05T12:52:52;10.37;;;5.87;;
9188;SDS011;34313;50.780;6.084;2023-03-05T12:55:21;9.93;;;5.63;;
9188;SDS011;34313;50.780;6.084;2023-03-05T13:00:45;8.77;;;5.70;;
9188;SDS011;34313;50.780;6.084;2023-03-05T13:03:17;8.13;;;6.33;;
9188;SDS011;34313;50.780;6.084;2023-03-05T13:05:51;9.50;;;6.30;;
9188;SDS011;34313;50.780;6.084;2023-03-05T13:08:25;10.63;;;6.00;;
9188;SDS011;34313;50.780;6.084;2023-03-05T13:13:32;8.37;;;5.33;;
9188;SDS011;34313;50.780;6.084;2023-03-05T13:16:01;11.33;;;5.93;;
9188;SDS011;34313;50.780;6.084;2023-03-05T13:18:28;9.77;;;6.53;;
9188;SDS011;34313;50.780;6.084;2023-03-05T13:21:04;9.37;;;7.07;;
9188;SDS011;34313;50.780;6.084;2023-03-05T13:23:32;11.37;;;6.63;;
9188;SDS011;34313;50.780;6.084;2023-03-05T13:29:05;7.20;;;6.03;;
9188;SDS011;34313;50.780;6.084;2023-03-05T13:31:40;11.30;;;5.10;;
9188;SDS011;34313;50.780;6.084;2023-03-05T13:34:18;7.80;;;4.60;;
9188;SDS011;34313;50.780;6.084;2023-03-05T13:36:46;9.23;;;6.03;;
9188;SDS011;34313;50.780;6.084;2023-03-05T13:39:20;9.43;;;5.20;;
9188;SDS011;34313;50.780;6.084;2023-03-05T13:41:58;7.63;;;4.97;;
9188;SDS011;34313;50.780;6.084;2023-03-05T13:44:39;8.97;;;6.10;;
9188;SDS011;34313;50.780;6.084;2023-03-05T13:47:05;6.73;;;5.03;;
9188;SDS011;34313;50.780;6.084;2023-03-05T13:49:33;7.43;;;5.47;;
9188;SDS011;34313;50.780;6.084;2023-03-05T13:51:58;8.10;;;5.87;;
9188;SDS011;34313;50.780;6.084;2023-03-05T13:54:24;8.60;;;6.70;;
9188;SDS011;34313;50.780;6.084;2023-03-05T13:57:02;8.53;;;6.07;;
9188;SDS011;34313;50.780;6.084;2023-03-05T13:59:33;7.17;;;4.90;;
9188;SDS011;34313;50.780;6.084;2023-03-05T14:02:03;6.33;;;5.30;;
9188;SDS011;34313;50.780;6.084;2023-03-05T14:04:42;6.27;;;4.67;;
9188;SDS011;34313;50.780;6.084;2023-03-05T14:07:24;9.37;;;5.40;;
9188;SDS011;34313;50.780;6.084;2023-03-05T14:09:55;7.87;;;5.57;;
9188;SDS011;34313;50.780;6.084;2023-03-05T14:14:54;9.77;;;5.57;;
9188;SDS011;34313;50.780;6.084;2023-03-05T14:19:52;8.53;;;5.90;;
9188;SDS011;34313;50.780;6.084;2023-03-05T14:22:34;6.67;;;4.83;;
9188;SDS011;34313;50.780;6.084;2023-03-05T14:25:02;6.43;;;5.03;;
9188;SDS011;34313;50.780;6.084;2023-03-05T14:27:30;6.07;;;5.30;;
9188;SDS011;34313;50.780;6.084;2023-03-05T14:29:59;6.70;;;5.93;;
9188;SDS011;34313;50.780;6.084;2023-03-05T14:32:32;7.40;;;5.70;;
9188;SDS011;34313;50.780;6.084;2023-03-05T14:35:00;7.73;;;6.17;;
9188;SDS011;34313;50.780;6.084;2023-03-05T14:37:31;7.63;;;5.87;;
9188;SDS011;34313;50.780;6.084;2023-03-05T14:40:07;9.40;;;6.60;;
9188;SDS011;34313;50.780;6.084;2023-03-05T14:42:53;11.33;;;6.60;;
9188;SDS011;34313;50.780;6.084;2023-03-05T14:47:54;8.80;;;5.57;;
9188;SDS011;34313;50.780;6.084;2023-03-05T14:50:26;7.33;;;5.17;;
9188;SDS011;34313;50.780;6.084;2023-03-05T14:53:01;8.27;;;5.67;;
9188;SDS011;34313;50.780;6.084;2023-03-05T14:55:31;9.33;;;5.87;;
9188;SDS011;34313;50.780;6.084;2023-03-05T14:58:03;8.23;;;5.87;;
9188;SDS011;34313;50.780;6.084;2023-03-05T15:00:35;6.73;;;5.27;;
9188;SDS011;34313;50.780;6.084;2023-03-05T15:03:00;8.33;;;5.03;;
9188;SDS011;34313;50.780;6.084;2023-03-05T15:05:26;6.93;;;5.20;;
9188;SDS011;34313;50.780;6.084;2023-03-05T15:07:54;10.17;;;5.93;;
9188;SDS011;34313;50.780;6.084;2023-03-05T15:10:21;5.60;;;4.73;;
9188;SDS011;34313;50.780;6.084;2023-03-05T15:12:48;8.33;;;5.30;;
9188;SDS011;34313;50.780;6.084;2023-03-05T15:15:19;8.40;;;5.13;;
9188;SDS011;34313;50.780;6.084;2023-03-05T15:17:47;7.13;;;5.17;;
9188;SDS011;34313;50.780;6.084;2023-03-05T15:20:21;6.50;;;5.00;;
9188;SDS011;34313;50.780;6.084;2023-03-05T15:22:51;5.87;;;4.67;;
9188;SDS011;34313;50.780;6.084;2023-03-05T15:25:19;7.80;;;4.50;;
9188;SDS011;34313;50.780;6.084;2023-03-05T15:27:45;6.37;;;4.07;;
9188;SDS011;34313;50.780;6.084;2023-03-05T15:30:22;4.43;;;3.67;;
9188;SDS011;34313;50.780;6.084;2023-03-05T15:32:52;4.60;;;3.53;;
9188;SDS011;34313;50.780;6.084;2023-03-05T15:35:19;4.47;;;4.00;;
9188;SDS011;34313;50.780;6.084;2023-03-05T15:37:45;4.67;;;3.57;;
9188;SDS011;34313;50.780;6.084;2023-03-05T15:40:11;7.23;;;3.93;;
9188;SDS011;34313;50.780;6.084;2023-03-05T15:42:37;5.30;;;4.10;;
9188;SDS011;34313;50.780;6.084;2023-03-05T15:45:03;6.13;;;4.20;;
9188;SDS011;34313;50.780;6.084;2023-03-05T15:47:29;8.30;;;3.70;;
9188;SDS011;34313;50.780;6.084;2023-03-05T15:49:54;7.70;;;4.00;;
9188;SDS011;34313;50.780;6.084;2023-03-05T15:52:19;5.63;;;3.77;;
9188;SDS011;34313;50.780;6.084;2023-03-05T15:54:45;3.80;;;3.33;;
9188;SDS011;34313;50.780;6.084;2023-03-05T15:57:10;4.70;;;3.97;;
9188;SDS011;34313;50.780;6.084;2023-03-05T15:59:37;3.80;;;3.20;;
9188;SDS011;34313;50.780;6.084;2023-03-05T16:02:02;4.90;;;3.13;;
9188;SDS011;34313;50.780;6.084;2023-03-05T16:04:29;3.87;;;2.70;;
9188;SDS011;34313;50.780;6.084;2023-03-05T16:06:54;3.67;;;2.87;;
9188;SDS011;34313;50.780;6.084;2023-03-05T16:09:23;2.70;;;2.50;;
9188;SDS011;34313;50.780;6.084;2023-03-05T16:11:50;4.90;;;3.13;;
9188;SDS011;34313;50.780;6.084;2023-03-05T16:14:18;2.67;;;2.47;;
9188;SDS011;34313;50.780;6.084;2023-03-05T16:16:47;3.07;;;2.70;;
9188;SDS011;34313;50.780;6.084;2023-03-05T16:19:19;2.67;;;2.47;;
9188;SDS011;34313;50.780;6.084;2023-03-05T16:21:48;3.17;;;2.30;;
9188;SDS011;34313;50.780;6.084;2023-03-05T16:24:13;4.97;;;2.83;;
9188;SDS011;34313;50.780;6.084;2023-03-05T16:26:39;5.80;;;3.47;;
9188;SDS011;34313;50.780;6.084;2023-03-05T16:29:05;5.20;;;3.63;;
9188;SDS011;34313;50.780;6.084;2023-03-05T16:31:31;4.13;;;3.60;;
9188;SDS011;34313;50.780;6.084;2023-03-05T16:33:58;4.40;;;3.90;;
9188;SDS011;34313;50.780;6.084;2023-03-05T16:36:25;6.73;;;3.33;;
9188;SDS011;34313;50.780;6.084;2023-03-05T16:38:53;10.23;;;4.40;;
9188;SDS011;34313;50.780;6.084;2023-03-05T16:41:21;6.43;;;4.60;;
9188;SDS011;34313;50.780;6.084;2023-03-05T16:43:48;7.90;;;4.83;;
9188;SDS011;34313;50.780;6.084;2023-03-05T16:46:14;10.27;;;4.47;;
9188;SDS011;34313;50.780;6.084;2023-03-05T16:48:42;7.13;;;4.73;;